sensor_id;sensor_type;location;lat;lon;timestamp;pressure;altitude;pressure_sealevel;temperature;humidity
9521;BME280;4798;41.574;23.734;2023-06-22T00:01:34;95678.59;;;21.34;100.00
9521;BME280;4798;41.574;23.734;2023-06-22T00:04:03;95676.28;;;21.66;100.00
9521;BME280;4798;41.574;23.734;2023-06-22T00:06:31;95673.72;;;21.48;100.00
9521;BME280;4798;41.574;23.734;2023-06-22T00:09:01;95683.47;;;21.62;100.00
9521;BME280;4798;41.574;23.734;2023-06-22T00:11:30;95683.72;;;21.69;100.00
9521;BME280;4798;41.574;23.734;2023-06-22T00:14:00;95690.91;;;21.44;100.00
9521;BME280;4798;41.574;23.734;2023-06-22T00:16:28;95696.34;;;21.56;100.00
9521;BME280;4798;41.574;23.734;2023-06-22T00:18:57;95699.00;;;21.44;100.00
9521;BME280;4798;41.574;23.734;2023-06-22T00:21:27;95694.72;;;21.64;100.00
9521;BME280;4798;41.574;23.734;2023-06-22T00:23:55;95704.84;;;21.67;100.00
9521;BME280;4798;41.574;23.734;2023-06-22T00:26:25;95705.22;;;21.36;100.00
9521;BME280;4798;41.574;23.734;2023-06-22T00:28:54;95703.38;;;20.99;100.00
9521;BME280;4798;41.574;23.734;2023-06-22T00:31:22;95705.34;;;21.19;100.00
9521;BME280;4798;41.574;23.734;2023-06-22T00:33:50;95720.91;;;21.13;100.00
9521;BME280;4798;41.574;23.734;2023-06-22T00:36:19;95719.50;;;21.36;100.00
9521;BME280;4798;41.574;23.734;2023-06-22T00:38:47;95720.31;;;21.37;100.00
9521;BME280;4798;41.574;23.734;2023-06-22T00:41:17;95725.63;;;21.45;100.00
9521;BME280;4798;41.574;23.734;2023-06-22T00:43:47;95720.72;;;21.47;100.00
9521;BME280;4798;41.574;23.734;2023-06-22T00:46:15;95726.50;;;21.37;100.00
9521;BME280;4798;41.574;23.734;2023-06-22T00:48:44;95718.53;;;21.41;100.00
9521;BME280;4798;41.574;23.734;2023-06-22T00:51:12;95721.09;;;21.37;100.00
9521;BME280;4798;41.574;23.734;2023-06-22T00:53:41;95714.66;;;21.30;100.00
9521;BME280;4798;41.574;23.734;2023-06-22T00:56:10;95649.13;;;20.79;100.00
9521;BME280;4798;41.574;23.734;2023-06-22T00:58:39;95720.03;;;21.30;100.00
9521;BME280;4798;41.574;23.734;2023-06-22T01:01:09;95719.88;;;21.26;100.00
9521;BME280;4798;41.574;23.734;2023-06-22T01:03:38;95712.63;;;21.18;100.00
9521;BME280;4798;41.574;23.734;2023-06-22T01:06:08;95710.09;;;21.22;100.00
9521;BME280;4798;41.574;23.734;2023-06-22T01:08:48;95711.06;;;21.17;100.00
9521;BME280;4798;41.574;23.734;2023-06-22T01:11:26;95727.28;;;21.00;100.00
9521;BME280;4798;41.574;23.734;2023-06-22T01:14:00;95723.16;;;20.73;100.00
9521;BME280;4798;41.574;23.734;2023-06-22T01:16:35;95713.28;;;20.77;100.00
9521;BME280;4798;41.574;23.734;2023-06-22T01:19:13;95716.13;;;20.89;100.00
9521;BME280;4798;41.574;23.734;2023-06-22T01:21:44;95724.28;;;21.02;100.00
9521;BME280;4798;41.574;23.734;2023-06-22T01:24:19;95713.50;;;21.02;100.00
9521;BME280;4798;41.574;23.734;2023-06-22T01:26:57;95652.69;;;20.63;100.00
9521;BME280;4798;41.574;23.734;2023-06-22T01:29:29;95704.97;;;21.00;100.00
9521;BME280;4798;41.574;23.734;2023-06-22T01:31:59;95708.59;;;20.95;100.00
9521;BME280;4798;41.574;23.734;2023-06-22T01:34:30;95701.38;;;20.87;100.00
9521;BME280;4798;41.574;23.734;2023-06-22T01:36:59;95708.97;;;20.85;100.00
9521;BME280;4798;41.574;23.734;2023-06-22T01:39:29;95734.25;;;20.72;100.00
9521;BME280;4798;41.574;23.734;2023-06-22T01:41:59;95719.66;;;20.73;100.00
9521;BME280;4798;41.574;23.734;2023-06-22T01:44:30;95722.97;;;20.78;100.00
9521;BME280;4798;41.574;23.734;2023-06-22T01:46:59;95725.94;;;20.85;100.00
9521;BME280;4798;41.574;23.734;2023-06-22T01:49:28;95731.56;;;20.72;100.00
9521;BME280;4798;41.574;23.734;2023-06-22T01:51:56;95732.63;;;20.07;100.00
9521;BME280;4798;41.574;23.734;2023-06-22T01:54:25;95736.91;;;20.08;100.00
9521;BME280;4798;41.574;23.734;2023-06-22T01:56:53;95735.31;;;19.99;100.00
9521;BME280;4798;41.574;23.734;2023-06-22T01:59:25;95727.75;;;19.75;100.00
9521;BME280;4798;41.574;23.734;2023-06-22T02:02:01;95745.00;;;20.08;100.00
9521;BME280;4798;41.574;23.734;2023-06-22T02:04:33;95740.53;;;20.30;100.00
9521;BME280;4798;41.574;23.734;2023-06-22T02:07:07;95734.69;;;20.36;100.00
9521;BME280;4798;41.574;23.734;2023-06-22T02:09:38;95728.50;;;20.36;100.00
9521;BME280;4798;41.574;23.734;2023-06-22T02:12:11;95729.47;;;19.97;100.00
9521;BME280;4798;41.574;23.734;2023-06-22T02:14:41;95734.19;;;20.17;100.00
9521;BME280;4798;41.574;23.734;2023-06-22T02:17:11;95742.13;;;20.31;100.00
9521;BME280;4798;41.574;23.734;2023-06-22T02:19:41;95736.88;;;20.34;100.00
9521;BME280;4798;41.574;23.734;2023-06-22T02:22:09;95729.44;;;20.40;100.00
9521;BME280;4798;41.574;23.734;2023-06-22T02:24:39;95737.66;;;20.35;100.00
9521;BME280;4798;41.574;23.734;2023-06-22T02:27:07;95744.53;;;20.23;100.00
9521;BME280;4798;41.574;23.734;2023-06-22T02:29:37;95754.63;;;20.26;100.00
9521;BME280;4798;41.574;23.734;2023-06-22T02:32:06;95745.78;;;20.26;100.00
9521;BME280;4798;41.574;23.734;2023-06-22T02:34:36;95760.44;;;20.54;100.00
9521;BME280;4798;41.574;23.734;2023-06-22T02:37:04;95724.84;;;20.32;100.00
9521;BME280;4798;41.574;23.734;2023-06-22T02:39:32;95747.81;;;20.20;100.00
9521;BME280;4798;41.574;23.734;2023-06-22T02:42:01;95746.88;;;19.99;100.00
9521;BME280;4798;41.574;23.734;2023-06-22T02:44:29;95741.22;;;19.75;100.00
9521;BME280;4798;41.574;23.734;2023-06-22T02:46:57;95764.59;;;19.40;100.00
9521;BME280;4798;41.574;23.734;2023-06-22T02:49:26;95756.94;;;19.34;100.00
9521;BME280;4798;41.574;23.734;2023-06-22T02:51:57;95764.28;;;19.42;100.00
9521;BME280;4798;41.574;23.734;2023-06-22T02:54:25;95746.06;;;19.39;100.00
9521;BME280;4798;41.574;23.734;2023-06-22T02:56:54;95762.72;;;19.58;100.00
9521;BME280;4798;41.574;23.734;2023-06-22T02:59:22;95773.63;;;19.70;100.00
9521;BME280;4798;41.574;23.734;2023-06-22T03:01:51;95766.84;;;19.73;100.00
9521;BME280;4798;41.574;23.734;2023-06-22T03:04:20;95763.53;;;19.93;100.00
9521;BME280;4798;41.574;23.734;2023-06-22T03:06:48;95766.34;;;20.13;100.00
9521;BME280;4798;41.574;23.734;2023-06-22T03:09:20;95759.38;;;20.21;100.00
9521;BME280;4798;41.574;23.734;2023-06-22T03:11:48;95776.16;;;20.18;100.00
9521;BME280;4798;41.574;23.734;2023-06-22T03:14:16;95777.75;;;20.36;100.00
9521;BME280;4798;41.574;23.734;2023-06-22T03:16:45;95781.06;;;20.42;100.00
9521;BME280;4798;41.574;23.734;2023-06-22T03:19:13;95781.50;;;20.52;100.00
9521;BME280;4798;41.574;23.734;2023-06-22T03:21:41;95775.50;;;20.47;100.00
9521;BME280;4798;41.574;23.734;2023-06-22T03:24:10;95764.28;;;20.10;100.00
9521;BME280;4798;41.574;23.734;2023-06-22T03:26:40;95779.00;;;20.13;100.00
9521;BME280;4798;41.574;23.734;2023-06-22T03:29:08;95771.53;;;20.53;100.00
9521;BME280;4798;41.574;23.734;2023-06-22T03:31:36;95772.25;;;20.79;100.00
9521;BME280;4798;41.574;23.734;2023-06-22T03:34:05;95770.47;;;20.83;100.00
9521;BME280;4798;41.574;23.734;2023-06-22T03:36:33;95768.41;;;20.88;100.00
9521;BME280;4798;41.574;23.734;2023-06-22T03:39:02;95751.34;;;21.05;100.00
9521;BME280;4798;41.574;23.734;2023-06-22T03:41:30;95748.28;;;20.86;100.00
9521;BME280;4798;41.574;23.734;2023-06-22T03:44:00;95751.59;;;20.54;100.00
9521;BME280;4798;41.574;23.734;2023-06-22T03:46:28;95760.03;;;20.81;100.00
9521;BME280;4798;41.574;23.734;2023-06-22T03:48:57;95763.53;;;20.82;100.00
9521;BME280;4798;41.574;23.734;2023-06-22T03:51:25;95780.06;;;20.72;100.00
9521;BME280;4798;41.574;23.734;2023-06-22T03:53:53;95790.94;;;20.84;100.00
9521;BME280;4798;41.574;23.734;2023-06-22T03:56:21;95790.94;;;20.84;100.00
9521;BME280;4798;41.574;23.734;2023-06-22T03:58:50;95788.44;;;20.70;100.00
9521;BME280;4798;41.574;23.734;2023-06-22T04:01:20;95794.78;;;20.74;100.00
9521;BME280;4798;41.574;23.734;2023-06-22T04:03:48;95792.28;;;20.61;100.00
9521;BME280;4798;41.574;23.734;2023-06-22T04:06:17;95792.09;;;20.66;100.00
9521;BME280;4798;41.574;23.734;2023-06-22T04:08:45;95779.78;;;20.56;100.00
9521;BME280;4798;41.574;23.734;2023-06-22T04:11:18;95799.38;;;20.74;100.00
9521;BME280;4798;41.574;23.734;2023-06-22T04:13:46;95795.38;;;20.80;100.00
9521;BME280;4798;41.574;23.734;2023-06-22T04:16:15;95792.03;;;20.83;100.00
9521;BME280;4798;41.574;23.734;2023-06-22T04:18:45;95796.78;;;20.86;100.00
9521;BME280;4798;41.574;23.734;2023-06-22T04:21:13;95802.75;;;21.00;100.00
9521;BME280;4798;41.574;23.734;2023-06-22T04:23:42;95801.97;;;21.00;100.00
9521;BME280;4798;41.574;23.734;2023-06-22T04:26:11;95795.41;;;21.18;100.00
9521;BME280;4798;41.574;23.734;2023-06-22T04:28:39;95793.03;;;21.25;100.00
9521;BME280;4798;41.574;23.734;2023-06-22T04:31:08;95792.16;;;21.33;100.00
9521;BME280;4798;41.574;23.734;2023-06-22T04:33:37;95742.94;;;21.15;100.00
9521;BME280;4798;41.574;23.734;2023-06-22T04:36:09;95798.25;;;21.50;100.00
9521;BME280;4798;41.574;23.734;2023-06-22T04:38:40;95794.44;;;21.51;100.00
9521;BME280;4798;41.574;23.734;2023-06-22T04:41:09;95787.38;;;21.38;100.00
9521;BME280;4798;41.574;23.734;2023-06-22T04:43:41;95800.63;;;21.52;100.00
9521;BME280;4798;41.574;23.734;2023-06-22T04:46:09;95799.84;;;21.51;100.00
9521;BME280;4798;41.574;23.734;2023-06-22T04:48:37;95801.69;;;21.60;100.00
9521;BME280;4798;41.574;23.734;2023-06-22T04:51:06;95810.94;;;21.79;100.00
9521;BME280;4798;41.574;23.734;2023-06-22T04:53:36;95806.63;;;21.58;100.00
9521;BME280;4798;41.574;23.734;2023-06-22T04:56:08;95807.25;;;21.84;100.00
9521;BME280;4798;41.574;23.734;2023-06-22T04:58:36;95810.97;;;22.00;100.00
9521;BME280;4798;41.574;23.734;2023-06-22T05:01:05;95806.88;;;22.14;100.00
9521;BME280;4798;41.574;23.734;2023-06-22T05:03:33;95805.78;;;22.16;100.00
9521;BME280;4798;41.574;23.734;2023-06-22T05:06:04;95809.47;;;21.90;100.00
9521;BME280;4798;41.574;23.734;2023-06-22T05:08:32;95800.44;;;21.86;100.00
9521;BME280;4798;41.574;23.734;2023-06-22T05:11:02;95798.16;;;21.09;100.00
9521;BME280;4798;41.574;23.734;2023-06-22T05:13:32;95812.03;;;21.28;100.00
9521;BME280;4798;41.574;23.734;2023-06-22T05:16:00;95811.66;;;21.68;100.00
9521;BME280;4798;41.574;23.734;2023-06-22T05:18:30;95810.47;;;21.48;100.00
9521;BME280;4798;41.574;23.734;2023-06-22T05:20:59;95808.56;;;21.78;100.00
9521;BME280;4798;41.574;23.734;2023-06-22T05:23:27;95814.56;;;22.25;100.00
9521;BME280;4798;41.574;23.734;2023-06-22T05:25:56;95815.75;;;22.56;100.00
9521;BME280;4798;41.574;23.734;2023-06-22T05:28:26;95815.72;;;22.24;100.00
9521;BME280;4798;41.574;23.734;2023-06-22T05:30:55;95803.19;;;22.72;100.00
9521;BME280;4798;41.574;23.734;2023-06-22T05:33:23;95806.22;;;22.71;95.66
9521;BME280;4798;41.574;23.734;2023-06-22T05:35:51;95802.31;;;22.93;97.79
9521;BME280;4798;41.574;23.734;2023-06-22T05:38:20;95799.41;;;22.98;100.00
9521;BME280;4798;41.574;23.734;2023-06-22T05:40:48;95789.09;;;23.36;98.81
9521;BME280;4798;41.574;23.734;2023-06-22T05:43:17;95796.09;;;23.37;93.01
9521;BME280;4798;41.574;23.734;2023-06-22T05:45:46;95792.47;;;23.57;95.88
9521;BME280;4798;41.574;23.734;2023-06-22T05:48:14;95792.66;;;23.28;89.99
9521;BME280;4798;41.574;23.734;2023-06-22T05:50:43;95785.25;;;23.61;87.42
9521;BME280;4798;41.574;23.734;2023-06-22T05:53:11;95778.59;;;24.23;87.27
9521;BME280;4798;41.574;23.734;2023-06-22T05:55:39;95778.34;;;24.28;87.09
9521;BME280;4798;41.574;23.734;2023-06-22T05:58:09;95773.56;;;23.97;87.59
9521;BME280;4798;41.574;23.734;2023-06-22T06:00:37;95737.88;;;24.07;88.03
9521;BME280;4798;41.574;23.734;2023-06-22T06:03:08;95776.16;;;23.93;87.72
9521;BME280;4798;41.574;23.734;2023-06-22T06:05:40;95763.84;;;23.96;84.83
9521;BME280;4798;41.574;23.734;2023-06-22T06:08:08;95773.97;;;24.39;85.83
9521;BME280;4798;41.574;23.734;2023-06-22T06:10:38;95777.72;;;24.34;86.83
9521;BME280;4798;41.574;23.734;2023-06-22T06:13:07;95778.91;;;23.69;87.75
9521;BME280;4798;41.574;23.734;2023-06-22T06:15:35;95774.03;;;24.27;86.04
9521;BME280;4798;41.574;23.734;2023-06-22T06:18:04;95774.34;;;24.37;86.11
9521;BME280;4798;41.574;23.734;2023-06-22T06:20:35;95775.22;;;24.41;84.58
9521;BME280;4798;41.574;23.734;2023-06-22T06:23:03;95772.06;;;24.12;87.06
9521;BME280;4798;41.574;23.734;2023-06-22T06:25:32;95763.25;;;24.42;87.80
9521;BME280;4798;41.574;23.734;2023-06-22T06:28:00;95772.50;;;24.41;84.13
9521;BME280;4798;41.574;23.734;2023-06-22T06:30:28;95768.44;;;24.20;85.38
9521;BME280;4798;41.574;23.734;2023-06-22T06:32:57;95759.25;;;24.52;83.64
9521;BME280;4798;41.574;23.734;2023-06-22T06:35:26;95762.31;;;24.50;83.80
9521;BME280;4798;41.574;23.734;2023-06-22T06:37:56;95769.13;;;25.35;79.98
9521;BME280;4798;41.574;23.734;2023-06-22T06:40:24;95768.97;;;24.96;79.98
9521;BME280;4798;41.574;23.734;2023-06-22T06:42:53;95770.16;;;25.61;78.15
9521;BME280;4798;41.574;23.734;2023-06-22T06:45:23;95772.97;;;25.34;79.35
9521;BME280;4798;41.574;23.734;2023-06-22T06:47:52;95776.63;;;25.92;75.67
9521;BME280;4798;41.574;23.734;2023-06-22T06:50:21;95774.31;;;25.74;76.07
9521;BME280;4798;41.574;23.734;2023-06-22T06:52:50;95771.22;;;26.11;75.15
9521;BME280;4798;41.574;23.734;2023-06-22T06:55:20;95772.22;;;25.68;73.57
9521;BME280;4798;41.574;23.734;2023-06-22T06:57:50;95771.41;;;26.18;72.90
9521;BME280;4798;41.574;23.734;2023-06-22T07:00:20;95770.09;;;26.92;70.60
9521;BME280;4798;41.574;23.734;2023-06-22T07:02:48;95769.16;;;26.81;70.87
9521;BME280;4798;41.574;23.734;2023-06-22T07:05:17;95770.66;;;27.01;70.18
9521;BME280;4798;41.574;23.734;2023-06-22T07:07:45;95748.72;;;27.62;67.93
9521;BME280;4798;41.574;23.734;2023-06-22T07:10:14;95747.06;;;27.84;64.72
9521;BME280;4798;41.574;23.734;2023-06-22T07:12:44;95754.59;;;27.94;64.39
9521;BME280;4798;41.574;23.734;2023-06-22T07:15:13;95745.34;;;28.61;62.25
9521;BME280;4798;41.574;23.734;2023-06-22T07:17:42;95748.47;;;28.33;62.95
9521;BME280;4798;41.574;23.734;2023-06-22T07:20:11;95744.72;;;27.82;65.13
9521;BME280;4798;41.574;23.734;2023-06-22T07:22:41;95721.03;;;27.34;61.16
9521;BME280;4798;41.574;23.734;2023-06-22T07:25:10;95753.13;;;28.29;61.61
9521;BME280;4798;41.574;23.734;2023-06-22T07:27:46;95742.50;;;29.31;59.88
9521;BME280;4798;41.574;23.734;2023-06-22T07:30:15;95741.25;;;29.25;58.57
9521;BME280;4798;41.574;23.734;2023-06-22T07:32:43;95748.69;;;29.28;59.47
9521;BME280;4798;41.574;23.734;2023-06-22T07:35:12;95746.28;;;29.74;58.88
9521;BME280;4798;41.574;23.734;2023-06-22T07:37:40;95745.41;;;30.25;56.74
9521;BME280;4798;41.574;23.734;2023-06-22T07:40:09;95739.88;;;30.10;55.50
9521;BME280;4798;41.574;23.734;2023-06-22T07:42:38;95736.31;;;30.06;55.48
9521;BME280;4798;41.574;23.734;2023-06-22T07:45:08;95745.50;;;29.74;57.98
9521;BME280;4798;41.574;23.734;2023-06-22T07:47:36;95732.03;;;30.09;56.83
9521;BME280;4798;41.574;23.734;2023-06-22T07:50:05;95733.91;;;29.33;54.90
9521;BME280;4798;41.574;23.734;2023-06-22T07:52:34;95738.94;;;29.27;55.00
9521;BME280;4798;41.574;23.734;2023-06-22T07:55:03;95726.50;;;29.88;54.85
9521;BME280;4798;41.574;23.734;2023-06-22T07:57:31;95730.25;;;30.52;53.77
9521;BME280;4798;41.574;23.734;2023-06-22T08:00:05;95721.78;;;31.20;54.15
9521;BME280;4798;41.574;23.734;2023-06-22T08:02:41;95699.47;;;31.50;53.36
9521;BME280;4798;41.574;23.734;2023-06-22T08:05:11;95720.13;;;31.83;52.37
9521;BME280;4798;41.574;23.734;2023-06-22T08:07:48;95707.69;;;31.54;51.34
9521;BME280;4798;41.574;23.734;2023-06-22T08:10:17;95699.63;;;32.33;49.99
9521;BME280;4798;41.574;23.734;2023-06-22T08:12:45;95712.38;;;31.64;52.41
9521;BME280;4798;41.574;23.734;2023-06-22T08:15:14;95707.28;;;31.37;51.20
9521;BME280;4798;41.574;23.734;2023-06-22T08:17:44;95648.22;;;31.22;50.41
9521;BME280;4798;41.574;23.734;2023-06-22T08:20:13;95697.88;;;32.68;48.73
9521;BME280;4798;41.574;23.734;2023-06-22T08:22:42;95692.25;;;32.20;49.07
9521;BME280;4798;41.574;23.734;2023-06-22T08:25:11;95692.97;;;32.27;48.88
9521;BME280;4798;41.574;23.734;2023-06-22T08:27:40;95681.59;;;32.32;49.63
9521;BME280;4798;41.574;23.734;2023-06-22T08:30:09;95679.00;;;31.83;49.36
9521;BME280;4798;41.574;23.734;2023-06-22T08:32:38;95684.91;;;31.78;46.05
9521;BME280;4798;41.574;23.734;2023-06-22T08:35:09;95681.34;;;32.02;46.66
9521;BME280;4798;41.574;23.734;2023-06-22T08:37:37;95671.31;;;32.50;48.83
9521;BME280;4798;41.574;23.734;2023-06-22T08:40:08;95670.28;;;32.85;46.45
9521;BME280;4798;41.574;23.734;2023-06-22T08:42:39;95669.00;;;33.04;46.46
9521;BME280;4798;41.574;23.734;2023-06-22T08:45:09;95669.75;;;33.08;44.46
9521;BME280;4798;41.574;23.734;2023-06-22T08:47:38;95659.50;;;33.56;44.95
9521;BME280;4798;41.574;23.734;2023-06-22T08:50:10;95594.78;;;33.11;44.10
9521;BME280;4798;41.574;23.734;2023-06-22T08:52:39;95661.00;;;33.20;45.08
9521;BME280;4798;41.574;23.734;2023-06-22T08:55:09;95648.91;;;31.79;44.83
9521;BME280;4798;41.574;23.734;2023-06-22T08:57:38;95600.56;;;32.14;44.90
9521;BME280;4798;41.574;23.734;2023-06-22T09:00:09;95662.91;;;32.75;44.44
9521;BME280;4798;41.574;23.734;2023-06-22T09:02:43;95666.41;;;33.31;45.15
9521;BME280;4798;41.574;23.734;2023-06-22T09:05:13;95674.50;;;33.45;46.04
9521;BME280;4798;41.574;23.734;2023-06-22T09:07:43;95594.66;;;32.77;46.40
9521;BME280;4798;41.574;23.734;2023-06-22T09:10:11;95657.69;;;33.80;45.90
9521;BME280;4798;41.574;23.734;2023-06-22T09:12:39;95637.84;;;32.73;43.54
9521;BME280;4798;41.574;23.734;2023-06-22T09:15:09;95648.75;;;33.32;43.67
9521;BME280;4798;41.574;23.734;2023-06-22T09:17:42;95634.84;;;33.08;45.33
9521;BME280;4798;41.574;23.734;2023-06-22T09:20:13;95653.41;;;32.87;46.74
9521;BME280;4798;41.574;23.734;2023-06-22T09:22:42;95643.78;;;32.64;47.06
9521;BME280;4798;41.574;23.734;2023-06-22T09:25:11;95640.00;;;33.40;45.75
9521;BME280;4798;41.574;23.734;2023-06-22T09:27:39;95637.56;;;34.47;45.50
9521;BME280;4798;41.574;23.734;2023-06-22T09:30:08;95641.78;;;35.08;43.72
9521;BME280;4798;41.574;23.734;2023-06-22T09:32:36;95631.97;;;35.27;43.06
9521;BME280;4798;41.574;23.734;2023-06-22T09:35:06;95636.28;;;34.55;42.31
9521;BME280;4798;41.574;23.734;2023-06-22T09:37:37;95635.16;;;34.22;44.18
9521;BME280;4798;41.574;23.734;2023-06-22T09:40:06;95624.28;;;34.12;44.62
9521;BME280;4798;41.574;23.734;2023-06-22T09:42:38;95633.22;;;33.89;43.26
9521;BME280;4798;41.574;23.734;2023-06-22T09:45:07;95628.78;;;34.29;42.34
9521;BME280;4798;41.574;23.734;2023-06-22T09:47:36;95629.72;;;34.72;44.12
9521;BME280;4798;41.574;23.734;2023-06-22T09:50:05;95626.56;;;34.47;43.46
9521;BME280;4798;41.574;23.734;2023-06-22T09:52:34;95625.41;;;34.71;43.56
9521;BME280;4798;41.574;23.734;2023-06-22T09:55:07;95617.72;;;34.86;41.96
9521;BME280;4798;41.574;23.734;2023-06-22T09:57:36;95608.06;;;35.44;42.58
9521;BME280;4798;41.574;23.734;2023-06-22T10:00:06;95600.84;;;35.07;41.86
9521;BME280;4798;41.574;23.734;2023-06-22T10:02:37;95609.03;;;35.34;40.46
9521;BME280;4798;41.574;23.734;2023-06-22T10:05:06;95603.81;;;35.98;39.33
9521;BME280;4798;41.574;23.734;2023-06-22T10:07:36;95607.38;;;36.86;39.16
9521;BME280;4798;41.574;23.734;2023-06-22T10:10:11;95588.38;;;36.04;39.59
9521;BME280;4798;41.574;23.734;2023-06-22T10:12:42;95587.34;;;35.36;38.44
9521;BME280;4798;41.574;23.734;2023-06-22T10:15:11;95594.00;;;35.58;40.50
9521;BME280;4798;41.574;23.734;2023-06-22T10:17:40;95588.63;;;36.46;39.29
9521;BME280;4798;41.574;23.734;2023-06-22T10:20:09;95582.50;;;36.38;39.54
9521;BME280;4798;41.574;23.734;2023-06-22T10:22:40;95562.56;;;35.32;41.21
9521;BME280;4798;41.574;23.734;2023-06-22T10:25:11;95568.50;;;36.45;39.92
9521;BME280;4798;41.574;23.734;2023-06-22T10:27:40;95577.78;;;37.03;37.72
9521;BME280;4798;41.574;23.734;2023-06-22T10:30:10;95568.91;;;37.69;37.81
9521;BME280;4798;41.574;23.734;2023-06-22T10:32:40;95569.50;;;37.03;37.29
9521;BME280;4798;41.574;23.734;2023-06-22T10:35:10;95561.81;;;37.39;37.43
9521;BME280;4798;41.574;23.734;2023-06-22T10:37:41;95564.34;;;38.29;34.77
9521;BME280;4798;41.574;23.734;2023-06-22T10:40:12;95555.66;;;37.48;37.46
9521;BME280;4798;41.574;23.734;2023-06-22T10:42:42;95553.47;;;36.46;38.10
9521;BME280;4798;41.574;23.734;2023-06-22T10:45:11;95560.59;;;35.33;38.58
9521;BME280;4798;41.574;23.734;2023-06-22T10:47:40;95548.66;;;35.20;39.45
9521;BME280;4798;41.574;23.734;2023-06-22T10:50:10;95553.09;;;35.14;38.52
9521;BME280;4798;41.574;23.734;2023-06-22T10:52:39;95552.03;;;35.07;38.29
9521;BME280;4798;41.574;23.734;2023-06-22T10:55:09;95555.31;;;34.99;39.91
9521;BME280;4798;41.574;23.734;2023-06-22T10:57:39;95552.66;;;34.92;41.40
9521;BME280;4798;41.574;23.734;2023-06-22T11:00:12;95546.06;;;35.72;39.07
9521;BME280;4798;41.574;23.734;2023-06-22T11:03:02;95540.09;;;35.57;38.85
9521;BME280;4798;41.574;23.734;2023-06-22T11:05:31;95536.28;;;35.87;38.25
9521;BME280;4798;41.574;23.734;2023-06-22T11:07:59;95533.09;;;35.09;37.40
9521;BME280;4798;41.574;23.734;2023-06-22T11:10:28;95523.22;;;34.16;37.66
9521;BME280;4798;41.574;23.734;2023-06-22T11:12:58;95528.84;;;33.78;36.55
9521;BME280;4798;41.574;23.734;2023-06-22T11:15:26;95529.72;;;34.52;37.33
9521;BME280;4798;41.574;23.734;2023-06-22T11:17:55;95523.34;;;35.25;39.13
9521;BME280;4798;41.574;23.734;2023-06-22T11:20:24;95533.72;;;35.17;39.69
9521;BME280;4798;41.574;23.734;2023-06-22T11:22:52;95530.16;;;34.51;42.59
9521;BME280;4798;41.574;23.734;2023-06-22T11:25:21;95525.44;;;34.74;39.98
9521;BME280;4798;41.574;23.734;2023-06-22T11:27:49;95525.22;;;34.65;41.84
9521;BME280;4798;41.574;23.734;2023-06-22T11:30:19;95299.81;;;33.01;40.77
9521;BME280;4798;41.574;23.734;2023-06-22T11:32:47;95529.00;;;34.25;40.47
9521;BME280;4798;41.574;23.734;2023-06-22T11:35:16;95537.41;;;33.84;42.02
9521;BME280;4798;41.574;23.734;2023-06-22T11:37:44;95469.75;;;32.58;44.73
9521;BME280;4798;41.574;23.734;2023-06-22T11:40:13;95537.94;;;33.04;43.51
9521;BME280;4798;41.574;23.734;2023-06-22T11:42:41;95517.88;;;32.67;43.45
9521;BME280;4798;41.574;23.734;2023-06-22T11:45:10;95539.91;;;33.00;43.93
9521;BME280;4798;41.574;23.734;2023-06-22T11:47:40;95537.63;;;32.92;44.04
9521;BME280;4798;41.574;23.734;2023-06-22T11:50:08;95533.00;;;33.26;44.42
9521;BME280;4798;41.574;23.734;2023-06-22T11:52:37;95530.06;;;33.40;43.87
9521;BME280;4798;41.574;23.734;2023-06-22T11:55:06;95520.81;;;33.27;44.49
9521;BME280;4798;41.574;23.734;2023-06-22T11:57:36;95527.50;;;32.89;45.82
9521;BME280;4798;41.574;23.734;2023-06-22T12:00:05;95524.84;;;32.27;44.21
9521;BME280;4798;41.574;23.734;2023-06-22T12:02:44;95519.91;;;32.59;44.42
9521;BME280;4798;41.574;23.734;2023-06-22T12:05:13;95525.78;;;32.61;46.74
9521;BME280;4798;41.574;23.734;2023-06-22T12:07:42;95518.66;;;32.71;46.45
9521;BME280;4798;41.574;23.734;2023-06-22T12:10:10;95519.44;;;32.68;46.68
9521;BME280;4798;41.574;23.734;2023-06-22T12:12:38;95520.44;;;32.43;46.64
9521;BME280;4798;41.574;23.734;2023-06-22T12:15:07;95511.66;;;32.59;45.14
9521;BME280;4798;41.574;23.734;2023-06-22T12:17:36;95517.25;;;32.48;44.71
9521;BME280;4798;41.574;23.734;2023-06-22T12:20:07;95511.38;;;32.91;44.41
9521;BME280;4798;41.574;23.734;2023-06-22T12:22:36;95512.88;;;32.99;46.67
9521;BME280;4798;41.574;23.734;2023-06-22T12:25:06;95508.84;;;33.44;43.24
9521;BME280;4798;41.574;23.734;2023-06-22T12:27:34;95511.03;;;33.26;42.40
9521;BME280;4798;41.574;23.734;2023-06-22T12:30:04;95503.94;;;33.29;41.16
9521;BME280;4798;41.574;23.734;2023-06-22T12:32:32;95508.78;;;33.48;41.89
9521;BME280;4798;41.574;23.734;2023-06-22T12:35:00;95491.59;;;33.40;39.50
9521;BME280;4798;41.574;23.734;2023-06-22T12:37:30;95506.09;;;33.44;40.11
9521;BME280;4798;41.574;23.734;2023-06-22T12:40:00;95496.47;;;33.29;40.87
9521;BME280;4798;41.574;23.734;2023-06-22T12:42:30;95500.53;;;33.48;41.03
9521;BME280;4798;41.574;23.734;2023-06-22T12:44:59;95498.59;;;33.78;42.20
9521;BME280;4798;41.574;23.734;2023-06-22T12:47:27;95489.91;;;33.50;41.72
9521;BME280;4798;41.574;23.734;2023-06-22T12:49:55;95482.91;;;34.29;39.64
9521;BME280;4798;41.574;23.734;2023-06-22T12:52:24;95483.38;;;35.17;39.42
9521;BME280;4798;41.574;23.734;2023-06-22T12:54:53;95372.66;;;34.39;39.37
9521;BME280;4798;41.574;23.734;2023-06-22T12:57:22;95469.09;;;34.79;38.60
9521;BME280;4798;41.574;23.734;2023-06-22T12:59:50;95466.56;;;34.68;39.06
9521;BME280;4798;41.574;23.734;2023-06-22T13:02:19;95471.44;;;34.34;37.53
9521;BME280;4798;41.574;23.734;2023-06-22T13:04:47;95471.53;;;33.13;40.29
9521;BME280;4798;41.574;23.734;2023-06-22T13:07:16;95475.69;;;32.91;39.58
9521;BME280;4798;41.574;23.734;2023-06-22T13:09:49;95474.84;;;33.31;40.61
9521;BME280;4798;41.574;23.734;2023-06-22T13:12:21;95475.81;;;33.48;38.72
9521;BME280;4798;41.574;23.734;2023-06-22T13:14:49;95478.59;;;33.14;38.77
9521;BME280;4798;41.574;23.734;2023-06-22T13:17:17;95471.09;;;32.77;38.96
9521;BME280;4798;41.574;23.734;2023-06-22T13:19:46;95463.56;;;32.88;39.92